Flight Track Log - Related Links

Times and Time Zones

All times are in EDT time to prevent confusion due to time zone crossing. See the DAL1679 flight status page for this flight to view local times or setup timezone preferences in your user account.

Time Position Orientation Groundspeed Altitude Reporting Facility
EDT Latitude Longitude Course Direction KTS MPH feet Rate Location/Type
Fri 03:36:56 PM 37.6667 -122.3667 63° Northeast 219 252 2,000  Level Northern Cal TRACON
Fri 03:37:56 PM 37.7000 -122.2833 63° Northeast 261 300 4,700 2,750 Climbing Northern Cal TRACON
Fri 03:38:56 PM 37.7333 -122.2000 64° Northeast 283 326 7,500 2,155 Climbing Northern Cal TRACON
Fri 03:40:57 PM 37.8106 -121.9986 71° East 334 384 11,200 1,691 Climbing Oakland Center
Fri 03:41:57 PM 37.8450 -121.8703 71° East 360 414 12,600 1,600 Climbing Oakland Center
Fri 03:42:57 PM 37.8836 -121.7286 73° East 391 450 14,400 1,900 Climbing Oakland Center
Fri 03:43:57 PM 37.9178 -121.5869 73° East 408 470 16,400 1,850 Climbing Oakland Center
Fri 03:44:57 PM 37.9539 -121.4369 75° East 432 497 18,100 1,450 Climbing Oakland Center
Fri 03:45:57 PM 37.9856 -121.2819 77° East 445 512 19,300 1,450 Climbing Oakland Center
Fri 03:46:57 PM 38.0131 -121.1317 77° East 461 531 21,000 1,500 Climbing Oakland Center
Fri 03:47:57 PM 38.0444 -120.9631 77° East 471 542 22,300 1,240 Climbing Oakland Center
Fri 03:48:58 PM 38.0756 -120.7914 76° East 490 564 23,500 1,200 Climbing Oakland Center
Fri 03:49:57 PM 38.1106 -120.6172 77° East 495 570 24,700 958 Climbing Oakland Center
Fri 03:50:57 PM 38.1433 -120.4400 76° East 500 575 25,400 843 Climbing Oakland Center
Fri 03:51:58 PM 38.1778 -120.2575 77° East 518 596 26,400 900 Climbing Oakland Center
Fri 03:52:57 PM 38.2119 -120.0722 77° East 529 609 27,200 857 Climbing Oakland Center
Fri 03:53:57 PM 38.2458 -119.8839 76° East 534 615 28,100 1,000 Climbing Oakland Center
Fri 03:54:57 PM 38.2814 -119.6956 77° East 539 620 29,200 950 Climbing Oakland Center
Fri 03:55:57 PM 38.3147 -119.5072 80° East 539 620 30,000 1,050 Climbing Oakland Center
Fri 03:56:57 PM 38.3433 -119.3078 78° East 532 612 31,300 1,100 Climbing Oakland Center
Fri 03:57:57 PM 38.3739 -119.1217 77° East 527 606 32,200 793 Climbing Oakland Center
Fri 03:58:58 PM 38.4047 -118.9542 79° East 533 613 32,900 400 Climbing Oakland Center
Fri 03:59:57 PM 38.4344 -118.7650 79° East 538 619 33,000 50 Climbing Oakland Center
Fri 04:00:58 PM 38.4642 -118.5756 78° East 538 619 33,000  Level Oakland Center
Fri 04:01:57 PM 38.4956 -118.3864 78° East 538 619 33,000  Level Oakland Center
Fri 04:02:57 PM 38.5269 -118.1994 77° East 543 625 33,000 50 Level Oakland Center
Fri 04:03:57 PM 38.5636 -117.9961 79° East 543 625 33,100 -42 Climbing Oakland Center
Fri 04:05:20 PM 38.5983 -117.7667 79° East 529 609 32,900 -41 Descending Salt Lake Center
Fri 04:06:22 PM 38.6269 -117.5817 79° East 528 608 33,000 48 Climbing Salt Lake Center
Fri 04:07:24 PM 38.6619 -117.3561 79° East 532 612 33,000  Level Salt Lake Center
Fri 04:09:28 PM 38.7192 -116.9786 79° East 535 616 33,000  Level Salt Lake Center
Fri 04:10:30 PM 38.7475 -116.7917 79° East 534 615 33,000  Level Salt Lake Center
Fri 04:11:32 PM 38.7758 -116.6047 80° East 533 613 33,000  Level Salt Lake Center
Fri 04:12:34 PM 38.8025 -116.4164 79° East 534 615 33,000  Level Salt Lake Center
Fri 04:13:36 PM 38.8300 -116.2292 80° East 533 613 33,000  Level Salt Lake Center
Fri 04:14:38 PM 38.8561 -116.0417 80° East 533 613 33,000  Level Salt Lake Center
Fri 04:15:40 PM 38.8875 -115.8169 80° East 533 613 33,000  Level Salt Lake Center
Fri 04:16:42 PM 38.9139 -115.6286 80° East 535 616 33,000  Level Salt Lake Center
Fri 04:17:44 PM 38.9392 -115.4414 80° East 533 613 33,000  Level Salt Lake Center
Fri 04:18:46 PM 38.9664 -115.2511 80° East 535 616 33,000  Level Salt Lake Center
Fri 04:19:48 PM 38.9917 -115.0611 80° East 534 615 33,000  Level Salt Lake Center
Fri 04:20:50 PM 39.0167 -114.8694 80° East 535 616 33,000  Level Salt Lake Center
Fri 04:21:51 PM 39.0422 -114.6786 80° East 534 615 33,000  Level Salt Lake Center
Fri 04:22:53 PM 39.0672 -114.4867 81° East 535 616 33,000  Level Salt Lake Center
Fri 04:23:55 PM 39.0911 -114.2972 81° East 531 611 33,000  Level Salt Lake Center
Fri 04:24:57 PM 39.1147 -114.1067 81° East 530 610 33,000  Level Salt Lake Center
Fri 04:25:59 PM 39.1386 -113.9156 81° East 532 612 33,000  Level Salt Lake Center
Fri 04:27:01 PM 39.1619 -113.7242 81° East 532 612 33,000  Level Salt Lake Center
Fri 04:28:03 PM 39.1892 -113.4956 81° East 530 610 33,000  Level Salt Lake Center
Fri 04:29:05 PM 39.2114 -113.3047 81° East 530 610 33,000  Level Salt Lake Center
Fri 04:30:07 PM 39.2339 -113.1142 81° East 528 608 33,000  Level Salt Lake Center
Fri 04:31:08 PM 39.2558 -112.9233 82° East 529 609 33,000  Level Salt Lake Center
Fri 04:32:10 PM 39.2772 -112.7333 81° East 528 608 33,000  Level Salt Lake Center
Fri 04:33:12 PM 39.2983 -112.5625 69° East 526 605 33,000  Level Salt Lake Center
Fri 04:34:14 PM 39.3606 -112.3494 64° Northeast 545 627 33,000  Level Salt Lake Center
Fri 04:35:16 PM 39.4261 -112.1725 65° Northeast 544 626 33,000  Level Salt Lake Center
Fri 04:36:18 PM 39.4906 -111.9964 65° Northeast 540 621 33,000  Level Salt Lake Center
Fri 04:37:20 PM 39.5547 -111.8194 65° Northeast 540 621 33,000  Level Salt Lake Center
Fri 04:38:21 PM 39.6192 -111.6408 65° Northeast 542 624 33,000  Level Salt Lake Center
Fri 04:39:23 PM 39.6831 -111.4622 65° Northeast 542 624 33,000  Level Salt Lake Center
Fri 04:40:25 PM 39.7472 -111.2844 65° Northeast 541 623 33,000  Level Salt Lake Center
Fri 04:41:27 PM 39.8167 -111.0889 66° East 540 621 33,000  Level Salt Lake Center
Fri 04:42:28 PM 39.8761 -110.9183 65° Northeast 540 621 33,000  Level Salt Lake Center
Fri 04:43:30 PM 39.9456 -110.7192 66° East 541 623 33,000  Level Salt Lake Center
Fri 04:44:32 PM 40.0050 -110.5478 66° East 541 623 33,000  Level Salt Lake Center
Fri 04:45:34 PM 40.0742 -110.3483 66° East 540 621 33,000  Level Salt Lake Center
Fri 04:46:36 PM 40.1333 -110.1761 72° East 541 623 33,000  Level Salt Lake Center
Fri 04:47:37 PM 40.1778 -109.9989 74° East 534 615 33,000  Level Salt Lake Center
Fri 04:48:39 PM 40.2244 -109.7897 74° East 534 615 33,000  Level Salt Lake Center
Fri 04:49:41 PM 40.2647 -109.6100 74° East 536 617 33,000  Level Salt Lake Center
Fri 04:50:43 PM 40.3100 -109.4000 74° East 536 617 33,000  Level Salt Lake Center
Fri 04:51:45 PM 40.3489 -109.2203 74° East 534 615 33,000  Level Salt Lake Center
Fri 04:52:47 PM 40.3936 -109.0111 74° East 533 613 33,000  Level Salt Lake Center
Fri 04:53:49 PM 40.4342 -108.8208 74° East 531 611 33,000  Level Salt Lake Center
Fri 04:54:51 PM 40.4722 -108.6417 75° East 533 613 33,000  Level Salt Lake Center
Fri 04:55:53 PM 40.5158 -108.4325 75° East 534 615 33,000  Level Salt Lake Center
Fri 04:56:55 PM 40.5525 -108.2536 75° East 533 613 33,000  Level Salt Lake Center
Fri 04:57:49 PM 40.5894 -108.0731 75° East 526 605 33,000  Level Denver Center
Fri 04:58:49 PM 40.6231 -107.9014 74° East 526 605 33,000  Level Denver Center
Fri 04:59:49 PM 40.6628 -107.7189 76° East 526 605 33,000  Level Denver Center
Fri 05:00:49 PM 40.7022 -107.5086 75° East 532 612 33,000  Level Denver Center
Fri 05:01:49 PM 40.7392 -107.3231 76° East 532 612 33,000  Level Denver Center
Fri 05:02:49 PM 40.7694 -107.1589 75° East 518 596 33,000  Level Denver Center
Fri 05:03:49 PM 40.8081 -106.9672 77° East 518 596 33,000  Level Denver Center
Fri 05:04:49 PM 40.8442 -106.7644 76° East 518 596 33,000  Level Denver Center
Fri 05:05:49 PM 40.8800 -106.5778 76° East 524 603 33,000  Level Denver Center
Fri 05:06:49 PM 40.9114 -106.4103 76° East 524 603 33,000  Level Denver Center
Fri 05:07:49 PM 40.9506 -106.2039 76° East 524 603 33,000  Level Denver Center
Fri 05:08:49 PM 40.9856 -106.0194 75° East 519 597 33,000  Level Denver Center
Fri 05:09:49 PM 41.0242 -105.8294 78° East 524 603 33,000  Level Denver Center
Fri 05:10:49 PM 41.0542 -105.6364 75° East 531 611 33,000  Level Denver Center
Fri 05:11:49 PM 41.0883 -105.4678 77° East 524 603 33,000  Level Denver Center
Fri 05:12:49 PM 41.1239 -105.2606 76° East 523 602 33,000  Level Denver Center
Fri 05:13:49 PM 41.1592 -105.0669 77° East 528 608 33,000 50 Level Denver Center
Fri 05:14:49 PM 41.1883 -104.9006 81° East 528 608 33,100  Climbing Denver Center
Fri 05:15:49 PM 41.2108 -104.7097 86° East 523 602 33,000 -50 Descending Denver Center
Fri 05:16:49 PM 41.2219 -104.4967 86° East 523 602 33,000 50 Level Denver Center
Fri 05:17:49 PM 41.2311 -104.3086 86° East 518 596 33,100  Climbing Denver Center
Fri 05:18:49 PM 41.2403 -104.1428 86° East 513 590 33,000 -50 Descending Denver Center
Fri 05:19:49 PM 41.2506 -103.9408 87° East 507 583 33,000  Level Denver Center
Fri 05:20:49 PM 41.2569 -103.7553 86° East 495 570 33,000  Level Denver Center
Fri 05:21:49 PM 41.2672 -103.5753 87° East 500 575 33,000  Level Denver Center
Fri 05:22:49 PM 41.2733 -103.4094 87° East 500 575 33,000  Level Denver Center
Fri 05:23:49 PM 41.2803 -103.2072 86° East 500 575 33,000  Level Denver Center
Fri 05:24:49 PM 41.2897 -103.0244 88° East 500 575 33,000  Level Denver Center
Fri 05:25:49 PM 41.2950 -102.8583 87° East 500 575 33,000  Level Denver Center
Fri 05:26:49 PM 41.3014 -102.6725 87° East 500 575 33,000  Level Denver Center
Fri 05:27:49 PM 41.3092 -102.4675 88° East 500 575 33,000  Level Denver Center
Fri 05:28:49 PM 41.3150 -102.2819 87° East 500 575 33,000 50 Level Denver Center
Fri 05:29:49 PM 41.3214 -102.1156 87° East 500 575 33,100  Climbing Denver Center
Fri 05:30:49 PM 41.3272 -101.9353 88° East 500 575 33,000 -50 Descending Denver Center
Fri 05:31:49 PM 41.3317 -101.7358 87° East 493 567 33,000  Level Denver Center
Fri 05:32:49 PM 41.3386 -101.5556 88° East 483 556 33,000  Level Denver Center
Fri 05:33:49 PM 41.3419 -101.3892 88° East 483 556 33,000  Level Denver Center
Fri 05:34:49 PM 41.3464 -101.2089 88° East 483 556 33,000  Level Denver Center
Fri 05:35:49 PM 41.3517 -101.0092 88° East 488 562 33,000  Level Denver Center
Fri 05:36:49 PM 41.3556 -100.8264 89° East 488 562 33,000  Level Denver Center
Fri 05:37:49 PM 41.3589 -100.6433 89° East 488 562 33,000  Level Denver Center
Fri 05:38:49 PM 41.3614 -100.4853 89° East 488 562 33,000  Level Denver Center
Fri 05:39:49 PM 41.3642 -100.3050 88° East 476 548 33,000  Level Denver Center
Fri 05:40:49 PM 41.3686 -100.1136 90° East 476 548 33,000  Level Denver Center
Fri 05:41:49 PM 41.3689 -99.9308 88° East 482 555 33,000  Level Denver Center
Fri 05:42:49 PM 41.3722 -99.7725 89° East 476 548 33,000  Level Denver Center
Fri 05:43:49 PM 41.3742 -99.5922 90° East 481 554 33,000  Level Denver Center
Fri 05:45:55 PM 41.3750 -99.2019 90° East 482 555 33,000  Level Minneapolis Center
Fri 05:46:55 PM 41.3750 -99.0414 91° East 482 555 33,000  Level Minneapolis Center
Fri 05:47:55 PM 41.3717 -98.8614 89° East 482 555 33,000  Level Minneapolis Center
Fri 05:48:55 PM 41.3742 -98.6819 91° East 482 555 33,000  Level Minneapolis Center
Fri 05:49:55 PM 41.3719 -98.5050 87° East 482 555 33,000  Level Minneapolis Center
Fri 05:50:55 PM 41.3800 -98.3258 87° East 482 555 33,000 500 Level Minneapolis Center
Fri 05:51:55 PM 41.3878 -98.1497 88° East 477 549 34,000 700 Climbing Minneapolis Center
Fri 05:52:55 PM 41.3933 -97.9731 87° East 472 543 34,400 500 Climbing Minneapolis Center
Fri 05:53:55 PM 41.4003 -97.8022 87° East 467 537 35,000 300 Climbing Minneapolis Center
Fri 05:54:55 PM 41.4072 -97.6258 86° East 467 537 35,000  Level Minneapolis Center
Fri 05:55:54 PM 41.4156 -97.4522 87° East 472 543 35,000  Level Minneapolis Center
Fri 05:56:55 PM 41.4219 -97.2783 85° East 472 543 35,000  Level Minneapolis Center
Fri 05:57:55 PM 41.4322 -97.1019 88° East 472 543 35,000  Level Minneapolis Center
Fri 05:58:54 PM 41.4378 -96.9281 87° East 472 543 35,000  Level Minneapolis Center
Fri 05:59:55 PM 41.4453 -96.7542 87° East 472 543 35,000  Level Minneapolis Center
Fri 06:00:55 PM 41.4525 -96.5775 87° East 472 543 35,000  Level Minneapolis Center
Fri 06:01:55 PM 41.4594 -96.4064 84° East 472 543 35,000  Level Minneapolis Center
Fri 06:02:55 PM 41.4725 -96.2300 90° East 477 549 35,000  Level Minneapolis Center
Fri 06:03:54 PM 41.4725 -96.0528 86° East 477 549 35,000  Level Minneapolis Center
Fri 06:04:55 PM 41.4808 -95.8789 88° East 477 549 35,000  Level Minneapolis Center
Fri 06:05:55 PM 41.4844 -95.7075 90° East 472 543 35,000  Level Minneapolis Center
Fri 06:06:55 PM 41.4842 -95.5111 88° East 472 543 35,000  Level Minneapolis Center
Fri 06:07:55 PM 41.4894 -95.3397 89° East 472 543 35,000  Level Minneapolis Center
Fri 06:08:55 PM 41.4922 -95.1653 89° East 472 543 35,000  Level Minneapolis Center
Fri 06:09:54 PM 41.4947 -94.9967 88° East 472 543 35,000  Level Minneapolis Center
Fri 06:10:54 PM 41.4992 -94.8253 89° East 460 529 35,000  Level Minneapolis Center
Fri 06:11:55 PM 41.5014 -94.6508 87° East 460 529 35,000  Level Minneapolis Center
Fri 06:12:55 PM 41.5072 -94.4822 88° East 460 529 35,000  Level Minneapolis Center
Fri 06:13:55 PM 41.5108 -94.3078 90° East 460 529 35,000  Level Minneapolis Center
Fri 06:14:54 PM 41.5100 -94.1389 88° East 460 529 35,000  Level Minneapolis Center
Fri 06:17:08 PM 41.5169 -93.7736 89° East 460 529 35,000  Level Chicago Center
Fri 06:18:08 PM 41.5192 -93.6019 89° East 460 529 35,000  Level Chicago Center
Fri 06:19:08 PM 41.5214 -93.4300 89° East 460 529 35,000  Level Chicago Center
Fri 06:20:08 PM 41.5231 -93.2581 90° East 460 529 35,000  Level Chicago Center
Fri 06:21:08 PM 41.5225 -93.0889 88° East 459 528 35,000  Level Chicago Center
Fri 06:22:08 PM 41.5261 -92.9086 92° East 465 535 35,000  Level Chicago Center
Fri 06:23:08 PM 41.5211 -92.7336 90° East 470 541 35,000  Level Chicago Center
Fri 06:24:08 PM 41.5217 -92.5672 91° East 470 541 35,000  Level Chicago Center
Fri 06:25:08 PM 41.5203 -92.3869 90° East 465 535 35,000  Level Chicago Center
Fri 06:26:08 PM 41.5206 -92.2150 89° East 465 535 35,000  Level Chicago Center
Fri 06:27:08 PM 41.5225 -92.0458 91° East 460 529 35,000  Level Chicago Center
Fri 06:28:08 PM 41.5208 -91.8486 91° East 467 537 35,000  Level Chicago Center
Fri 06:29:08 PM 41.5181 -91.6822 89° East 461 531 35,000  Level Chicago Center
Fri 06:30:08 PM 41.5194 -91.5047 88° East 461 531 35,000  Level Chicago Center
Fri 06:31:08 PM 41.5247 -91.3275 89° East 466 536 35,000  Level Chicago Center
Fri 06:32:08 PM 41.5275 -91.1500 89° East 466 536 35,000  Level Chicago Center
Fri 06:33:08 PM 41.5303 -90.9725 88° East 478 550 35,000  Level Chicago Center
Fri 06:34:08 PM 41.5347 -90.7922 88° East 478 550 35,000  Level Chicago Center
Fri 06:35:08 PM 41.5389 -90.6094 89° East 478 550 35,000  Level Chicago Center
Fri 06:36:08 PM 41.5408 -90.4292 88° East 478 550 35,000  Level Chicago Center
Fri 06:37:08 PM 41.5444 -90.2489 89° East 478 550 35,000  Level Chicago Center
Fri 06:38:08 PM 41.5458 -90.0711 89° East 478 550 35,000 -150 Level Chicago Center
Fri 06:39:08 PM 41.5489 -89.8881 91° East 478 550 34,700 -750 Descending Chicago Center
Fri 06:40:08 PM 41.5475 -89.7078 89° East 478 550 33,500 -850 Descending Chicago Center
Fri 06:41:08 PM 41.5500 -89.5497 91° East 478 550 33,000 -250 Descending Chicago Center
Fri 06:42:08 PM 41.5481 -89.3664 90° East 478 550 33,000  Level Chicago Center
Fri 06:43:08 PM 41.5478 -89.1889 90° East 478 550 33,000  Level Chicago Center
Fri 06:44:08 PM 41.5475 -89.0114 90° East 478 550 33,000  Level Chicago Center
Fri 06:45:08 PM 41.5467 -88.8311 90° East 478 550 33,000 -50 Level Chicago Center
Fri 06:46:08 PM 41.5458 -88.6536 118° Southeast 478 550 32,900 -300 Descending Chicago Center
Fri 06:47:08 PM 41.4864 -88.5017 131° Southeast 478 550 32,400 -750 Descending Chicago Center
Fri 06:48:08 PM 41.3978 -88.3644 131° Southeast 484 557 31,400 -1,200 Descending Chicago Center
Fri 06:49:08 PM 41.3111 -88.2303 131° Southeast 479 551 30,000 -1,200 Descending Chicago Center
Fri 06:50:08 PM 41.2178 -88.0856 129° Southeast 479 551 29,000 -500 Descending Chicago Center
Fri 06:51:08 PM 41.1372 -87.9550 130° Southeast 473 544 29,000  Level Chicago Center
Fri 06:52:08 PM 41.0519 -87.8217 131° Southeast 473 544 29,000  Level Chicago Center
Fri 06:53:08 PM 40.9689 -87.6944 131° Southeast 473 544 29,000 -350 Level Chicago Center
Fri 06:54:08 PM 40.8814 -87.5622 130° Southeast 473 544 28,300 -850 Descending Chicago Center
Fri 06:55:08 PM 40.7981 -87.4328 134° Southeast 473 544 27,300 -1,000 Descending Chicago Center
Fri 06:56:08 PM 40.7083 -87.3119 142° Southeast 473 544 26,300 -900 Descending Chicago Center
Fri 06:57:08 PM 40.6064 -87.2086 144° Southeast 462 532 25,500 -850 Descending Chicago Center
Fri 06:58:08 PM 40.5003 -87.1081 150° Southeast 467 537 24,600 -943 Descending Chicago Center
Fri 06:59:47 PM 40.3186 -86.9683 150° Southeast 498 573 23,000 -604 Descending Indianapolis Center
Fri 07:00:47 PM 40.2086 -86.8842 150° Southeast 469 540 23,000  Level Indianapolis Center
Fri 07:01:47 PM 40.0983 -86.8000 142° Southeast 464 534 23,000  Level Indianapolis Center
Fri 07:02:47 PM 39.9989 -86.6981 120° Southeast 459 528 23,000  Level Indianapolis Center
Fri 07:03:47 PM 39.9417 -86.5681 116° Southeast 448 516 23,000 -415 Level Indianapolis Center
Fri 07:04:57 PM 39.8667 -86.3667 123° Southeast 438 504 22,100 -882 Descending Indianapolis TRACON
Fri 07:06:03 PM 39.8000 -86.2333 116° Southeast 422 486 21,000 -1,476 Descending Indianapolis TRACON
Fri 07:07:03 PM 39.7500 -86.1000 120° Southeast 420 483 19,000 -2,019 Descending Indianapolis TRACON
Fri 07:07:47 PM 39.7086 -86.0075 118° Southeast 421 484 17,500 -2,250 Descending Indianapolis Center
Fri 07:08:47 PM 39.6569 -85.8817 116° Southeast 404 465 15,100 -2,050 Descending Indianapolis Center
Fri 07:09:47 PM 39.6075 -85.7506 114° Southeast 404 465 13,400 -1,450 Descending Indianapolis Center
Fri 07:10:47 PM 39.5639 -85.6228 114° Southeast 391 450 12,200 -1,150 Descending Indianapolis Center
Fri 07:11:47 PM 39.5200 -85.4978 124° Southeast 386 444 11,100 -700 Descending Indianapolis Center
Fri 07:12:47 PM 39.4575 -85.3778 115° Southeast 380 437 10,800 -450 Descending Indianapolis Center
Fri 07:13:47 PM 39.4194 -85.2717 104° East 383 441 10,200 -750 Descending Indianapolis Center
Fri 07:14:47 PM 39.3981 -85.1586 104° East 354 407 9,300 -1,300 Descending Indianapolis Center
Fri 07:15:47 PM 39.3767 -85.0478 102° East 324 373 7,600 -1,500 Descending Indianapolis Center
Fri 07:16:47 PM 39.3592 -84.9428 105° East 308 354 6,300 -1,289 Descending Indianapolis Center
Fri 07:17:48 PM 39.3333 -84.8167 123° Southeast 286 329 5,000 -843 Descending Cincinnati TRACON
Fri 07:18:48 PM 39.3000 -84.7500 134° Southeast 245 282 4,600 -793 Descending Cincinnati TRACON
Fri 07:19:49 PM 39.2500 -84.6833 153° Southeast 245 282 3,400 -756 Descending Cincinnati TRACON
Fri 07:20:55 PM 39.2000 -84.6500 180° South 217 250 3,000 -476 Descending Cincinnati TRACON
Fri 07:21:55 PM 39.1333 -84.6500 180° South 192 221 2,400 -632 Descending Cincinnati TRACON
Fri 07:22:49 PM 39.1000 -84.6500 180° South 152 175 1,800 -684 Descending Cincinnati TRACON
Fri 07:23:49 PM 39.0667 -84.6500 180° South 139 160 1,100 -700 Descending Cincinnati TRACON

Login

Don't have an account? Register now (free) for customized features, flight alerts, and more!